createdAt,value
2019-04-22T00:00:45.404Z,101684.16
2019-04-22T00:03:18.971Z,101676.20
2019-04-22T00:06:10.184Z,101674.41
2019-04-22T00:08:44.615Z,101669.92
2019-04-22T00:11:19.557Z,101661.56
2019-04-22T00:13:51.949Z,101664.13
2019-04-22T00:16:27.043Z,101664.08
2019-04-22T00:19:11.462Z,101659.66
2019-04-22T00:21:25.820Z,101660.50
2019-04-22T00:24:01.207Z,101650.86
2019-04-22T00:26:29.018Z,101646.83
2019-04-22T00:29:21.388Z,101644.63
2019-04-22T00:31:53.118Z,101643.28
2019-04-22T00:34:24.084Z,101642.38
2019-04-22T00:36:54.824Z,101638.86
2019-04-22T00:39:37.196Z,101643.23
2019-04-22T00:42:03.297Z,101635.83
2019-04-22T00:44:40.345Z,101635.82
2019-04-22T00:47:10.563Z,101629.73
2019-04-22T00:54:48.886Z,101621.01
2019-04-22T00:57:15.845Z,101617.91
2019-04-22T00:59:54.963Z,101614.45
2019-04-22T01:02:24.558Z,101623.60
2019-04-22T01:04:55.886Z,101617.05
2019-04-22T01:07:23.833Z,101620.08
2019-04-22T01:09:58.887Z,101617.02
2019-04-22T01:12:31.859Z,101612.19
2019-04-22T01:15:00.883Z,101615.66
2019-04-22T01:17:34.434Z,101612.97
2019-04-22T01:20:45.354Z,101603.73
2019-04-22T01:22:34.594Z,101600.24
2019-04-22T01:25:12.939Z,101598.91
2019-04-22T01:27:34.952Z,101599.72
2019-04-22T01:30:03.667Z,101589.64
2019-04-22T01:32:30.674Z,101592.67
2019-04-22T01:35:08.461Z,101584.78
2019-04-22T01:37:46.003Z,101589.12
2019-04-22T01:40:24.214Z,101579.04
2019-04-22T01:43:05.539Z,101579.04
2019-04-22T01:45:45.023Z,101578.61
2019-04-22T01:48:02.820Z,101577.70
2019-04-22T01:50:32.181Z,101569.77
2019-04-22T01:53:24.589Z,101575.42
2019-04-22T01:55:49.754Z,101572.34
2019-04-22T01:58:27.382Z,101568.34
2019-04-22T02:01:16.347Z,101569.63
2019-04-22T02:03:35.990Z,101567.39
2019-04-22T02:06:07.461Z,101561.65
2019-04-22T02:08:45.149Z,101559.03
2019-04-22T02:11:08.000Z,101558.53
2019-04-22T02:16:30.796Z,101551.54
2019-04-22T02:18:44.910Z,101546.70
2019-04-22T02:21:13.733Z,101549.73
2019-04-22T02:26:34.259Z,101543.96
2019-04-22T02:28:52.589Z,101539.53
2019-04-22T02:31:35.950Z,101536.88
2019-04-22T02:39:05.686Z,101533.27
2019-04-22T02:47:08.477Z,101526.22
2019-04-22T02:51:33.470Z,101524.81
2019-04-22T02:59:14.608Z,101513.67
2019-04-22T03:04:18.420Z,101509.66
2019-04-22T03:06:43.561Z,101508.75
2019-04-22T03:09:25.733Z,101498.17
2019-04-22T03:12:11.563Z,101494.63
2019-04-22T03:14:30.201Z,101494.16
2019-04-22T03:16:57.793Z,101493.69
2019-04-22T03:19:46.651Z,101486.67
2019-04-22T03:22:11.717Z,101488.85
2019-04-22T03:27:08.236Z,101491.44
2019-04-22T03:30:45.353Z,101495.77
2019-04-22T03:37:52.608Z,101479.52
2019-04-22T03:45:26.622Z,101473.75
2019-04-22T03:50:24.934Z,101467.17
2019-04-22T03:53:05.725Z,101480.27
2019-04-22T03:57:59.545Z,101467.07
2019-04-22T04:05:49.626Z,101474.38
2019-04-22T04:08:14.772Z,101465.12
2019-04-22T04:10:42.995Z,101469.81
2019-04-22T04:15:55.742Z,101459.59
2019-04-22T04:18:44.602Z,101459.56
2019-04-22T04:28:50.822Z,101463.38
2019-04-22T04:31:00.314Z,101458.14
2019-04-22T04:33:29.168Z,101457.31
2019-04-22T04:36:02.802Z,101458.61
2019-04-22T04:38:43.476Z,101461.67
2019-04-22T04:43:50.225Z,101459.92
2019-04-22T04:46:13.847Z,101459.05
2019-04-22T04:48:51.159Z,101465.66
2019-04-22T04:51:32.971Z,101460.44
2019-04-22T04:56:22.276Z,101464.94
2019-04-22T04:59:05.484Z,101462.83
2019-04-22T05:01:29.930Z,101466.39
2019-04-22T05:04:04.704Z,101463.87
2019-04-22T05:06:33.125Z,101465.70
2019-04-22T05:09:13.440Z,101467.95
2019-04-22T05:11:37.223Z,101468.88
2019-04-22T05:19:20.702Z,101469.45
2019-04-22T05:21:53.100Z,101472.61
2019-04-22T05:24:09.558Z,101473.11
2019-04-22T05:26:39.677Z,101467.55
2019-04-22T05:29:15.048Z,101470.27
2019-04-22T05:31:45.960Z,101465.12
2019-04-22T05:34:19.478Z,101465.67
2019-04-22T05:36:49.459Z,101466.22
2019-04-22T05:39:15.815Z,101459.81
2019-04-22T05:41:48.620Z,101464.75
2019-04-22T05:44:23.043Z,101455.20
2019-04-22T05:46:52.793Z,101459.70
2019-04-22T05:49:23.785Z,101457.60
2019-04-22T05:51:54.980Z,101448.52
2019-04-22T05:54:27.378Z,101459.56
2019-04-22T05:57:00.563Z,101450.47
2019-04-22T05:59:33.760Z,101454.06
2019-04-22T06:02:05.157Z,101449.36
2019-04-22T06:04:37.243Z,101448.62
2019-04-22T06:07:06.464Z,101451.80
2019-04-22T06:09:38.898Z,101452.02
2019-04-22T06:12:12.184Z,101450.77
2019-04-22T06:14:48.001Z,101437.69
2019-04-22T06:17:24.701Z,101444.30
2019-04-22T06:19:50.858Z,101443.02
2019-04-22T06:25:00.948Z,101442.25
2019-04-22T06:30:07.982Z,101450.17
2019-04-22T06:32:48.605Z,101449.72
2019-04-22T06:35:16.694Z,101449.24
2019-04-22T06:37:43.430Z,101442.63
2019-04-22T06:40:24.831Z,101448.73
2019-04-22T06:42:44.122Z,101444.30
2019-04-22T06:45:18.797Z,101440.78
2019-04-22T06:50:27.200Z,101435.81
2019-04-22T06:52:54.598Z,101445.83
2019-04-22T06:55:33.314Z,101429.94
2019-04-22T06:57:59.898Z,101429.81
2019-04-22T07:00:32.123Z,101433.25
2019-04-22T07:05:33.029Z,101429.52
2019-04-22T07:08:16.080Z,101423.65
2019-04-22T07:10:45.401Z,101425.23
2019-04-22T07:18:11.564Z,101418.08
2019-04-22T07:20:48.034Z,101412.55
2019-04-22T07:23:19.513Z,101409.73
2019-04-22T07:26:03.173Z,101413.03
2019-04-22T07:28:17.611Z,101412.36
2019-04-22T07:30:53.410Z,101417.41
2019-04-22T07:33:37.906Z,101413.98
2019-04-22T07:36:14.662Z,101411.48
2019-04-22T07:38:26.791Z,101407.30
2019-04-22T07:40:55.758Z,101402.65
2019-04-22T07:46:18.719Z,101399.36
2019-04-22T07:48:41.957Z,101399.89
2019-04-22T07:51:07.508Z,101392.50
2019-04-22T07:53:40.611Z,101397.44
2019-04-22T07:56:16.778Z,101397.50
2019-04-22T07:58:43.246Z,101391.89
2019-04-22T08:04:05.474Z,101392.89
2019-04-22T08:06:26.775Z,101380.48
2019-04-22T08:09:00.304Z,101387.14
2019-04-22T08:13:53.063Z,101370.75
2019-04-22T08:16:33.922Z,101368.16
2019-04-22T08:19:04.156Z,101362.89
2019-04-22T08:21:38.479Z,101364.28
2019-04-22T08:24:09.615Z,101371.27
2019-04-22T08:26:41.358Z,101371.16
2019-04-22T08:29:17.210Z,101369.73
2019-04-22T08:34:31.012Z,101365.97
2019-04-22T08:37:37.409Z,101371.64
2019-04-22T08:39:39.159Z,101362.84
2019-04-22T08:42:23.525Z,101363.81
2019-04-22T08:44:56.767Z,101367.36
2019-04-22T08:47:21.009Z,101349.59
2019-04-22T08:49:56.893Z,101351.06
2019-04-22T08:52:20.812Z,101338.42
2019-04-22T08:54:50.544Z,101343.27
2019-04-22T08:57:26.057Z,101339.97
2019-04-22T08:59:57.519Z,101340.83
2019-04-22T09:05:05.060Z,101337.74
2019-04-22T09:07:34.558Z,101331.58
2019-04-22T09:10:05.251Z,101339.10
2019-04-22T09:15:23.110Z,101333.11
2019-04-22T09:18:00.447Z,101322.13
2019-04-22T09:20:26.507Z,101313.38
2019-04-22T09:23:07.561Z,101323.33
2019-04-22T09:28:10.488Z,101315.17
2019-04-22T09:30:53.327Z,101313.61
2019-04-22T09:33:20.834Z,101309.98
2019-04-22T09:35:53.107Z,101312.62
2019-04-22T09:38:34.695Z,101309.08
2019-04-22T09:40:51.801Z,101304.95
2019-04-22T09:43:32.036Z,101300.12
2019-04-22T09:46:02.133Z,101295.41
2019-04-22T09:48:37.809Z,101302.74
2019-04-22T09:50:58.887Z,101296.14
2019-04-22T09:53:39.640Z,101287.25
2019-04-22T09:56:03.839Z,101288.59
2019-04-22T09:58:41.632Z,101292.86
2019-04-22T10:06:27.854Z,101272.80
2019-04-22T10:11:49.466Z,101268.88
2019-04-22T10:14:47.985Z,101269.19
2019-04-22T10:17:15.536Z,101266.99
2019-04-22T10:19:46.806Z,101260.70
2019-04-22T10:22:27.986Z,101262.91
2019-04-22T10:24:55.417Z,101258.70
2019-04-22T10:27:26.906Z,101255.62
2019-04-22T10:32:33.447Z,101253.67
2019-04-22T10:35:09.235Z,101258.02
2019-04-22T10:37:38.735Z,101240.77
2019-04-22T10:40:15.825Z,101236.47
2019-04-22T10:42:49.622Z,101230.55
2019-04-22T10:45:19.839Z,101224.20
2019-04-22T10:47:50.178Z,101226.03
2019-04-22T10:50:24.705Z,101224.76
2019-04-22T10:52:57.328Z,101219.18
2019-04-22T10:55:29.551Z,101219.34
2019-04-22T10:58:02.260Z,101219.42
2019-04-22T11:00:33.632Z,101212.09
2019-04-22T11:03:04.278Z,101201.20
2019-04-22T11:05:34.976Z,101208.79
2019-04-22T11:08:08.064Z,101199.66
2019-04-22T11:10:56.357Z,101200.85
2019-04-22T11:13:10.900Z,101197.19
2019-04-22T11:15:42.896Z,101196.05
2019-04-22T11:18:13.701Z,101204.52
2019-04-22T11:20:44.040Z,101195.68
2019-04-22T11:23:14.481Z,101190.38
2019-04-22T11:25:46.060Z,101184.14
2019-04-22T11:28:17.975Z,101178.36
2019-04-22T11:30:48.388Z,101178.80
2019-04-22T11:33:20.443Z,101175.44
2019-04-22T11:35:52.096Z,101181.12
2019-04-22T11:38:22.720Z,101167.36
2019-04-22T11:40:55.525Z,101169.19
2019-04-22T11:43:26.178Z,101149.37
2019-04-22T11:45:57.528Z,101164.08
2019-04-22T11:48:29.207Z,101160.27
2019-04-22T11:51:00.107Z,101170.29
2019-04-22T11:53:31.011Z,101156.56
2019-04-22T11:56:02.705Z,101161.25
2019-04-22T11:58:33.323Z,101149.29
2019-04-22T12:01:04.755Z,101133.19
2019-04-22T12:03:35.762Z,101149.61
2019-04-22T12:06:08.260Z,101137.81
2019-04-22T12:08:39.688Z,101142.77
2019-04-22T12:11:11.600Z,101135.64
2019-04-22T12:13:42.241Z,101139.17
2019-04-22T12:16:13.595Z,101153.44
2019-04-22T12:18:47.116Z,101139.22
2019-04-22T12:21:17.432Z,101128.52
2019-04-22T12:23:48.671Z,101129.98
2019-04-22T12:26:21.010Z,101129.34
2019-04-22T12:28:51.170Z,101118.77
2019-04-22T12:31:21.803Z,101117.31
2019-04-22T12:33:53.066Z,101116.75
2019-04-22T12:36:24.609Z,101104.68
2019-04-22T12:38:55.665Z,101113.41
2019-04-22T12:41:26.020Z,101106.88
2019-04-22T12:43:56.340Z,101101.31
2019-04-22T12:46:28.061Z,101103.23
2019-04-22T12:48:58.334Z,101094.90
2019-04-22T12:51:29.229Z,101088.57
2019-04-22T12:54:01.118Z,101088.50
2019-04-22T12:56:31.643Z,101082.08
2019-04-22T12:59:01.712Z,101074.69
2019-04-22T13:01:33.103Z,101081.78
2019-04-22T13:04:08.981Z,101073.05
2019-04-22T13:06:35.654Z,101066.27
2019-04-22T13:09:10.509Z,101076.12
2019-04-22T13:11:42.702Z,101068.98
2019-04-22T13:14:12.923Z,101066.61
2019-04-22T13:16:43.144Z,101067.28
2019-04-22T13:19:17.044Z,101063.80
2019-04-22T13:21:46.532Z,101060.19
2019-04-22T13:24:19.853Z,101061.26
2019-04-22T13:26:50.577Z,101062.07
2019-04-22T13:29:21.281Z,101051.30
2019-04-22T13:31:52.930Z,101059.20
2019-04-22T13:34:31.611Z,101036.08
2019-04-22T13:36:56.536Z,101030.61
2019-04-22T13:39:27.213Z,101037.47
2019-04-22T13:42:02.073Z,101036.45
2019-04-22T13:44:29.291Z,101028.17
2019-04-22T13:47:14.746Z,101021.91
2019-04-22T13:52:40.883Z,101019.92
2019-04-22T13:55:00.325Z,101024.80
2019-04-22T13:57:24.957Z,101022.34
2019-04-22T13:59:44.689Z,101011.11
2019-04-22T14:02:30.655Z,101017.19
2019-04-22T14:05:01.139Z,101012.29
2019-04-22T14:07:32.721Z,101002.26
2019-04-22T14:10:04.343Z,101007.36
2019-04-22T14:12:34.933Z,101008.16
2019-04-22T14:15:06.287Z,101000.03
2019-04-22T14:17:36.859Z,100997.09
2019-04-22T14:20:09.035Z,100988.67
2019-04-22T14:22:40.729Z,100982.63
2019-04-22T14:25:12.633Z,100990.59
2019-04-22T14:27:52.388Z,100987.23
2019-04-22T14:30:20.910Z,100984.30
2019-04-22T14:32:54.188Z,100983.33
2019-04-22T14:35:25.063Z,100977.62
2019-04-22T14:37:56.427Z,100977.82
2019-04-22T14:40:28.740Z,100970.95
2019-04-22T14:43:20.978Z,100974.59
2019-04-22T14:46:05.494Z,100959.72
2019-04-22T14:48:28.596Z,100960.49
2019-04-22T14:50:53.174Z,100961.34
2019-04-22T14:53:26.007Z,100958.06
2019-04-22T14:55:40.399Z,100954.71
2019-04-22T14:58:11.035Z,100941.70
2019-04-22T15:00:42.381Z,100944.91
2019-04-22T15:03:13.504Z,100938.64
2019-04-22T15:05:44.213Z,100933.73
2019-04-22T15:08:15.077Z,100930.33
2019-04-22T15:10:46.172Z,100942.58
2019-04-22T15:13:19.305Z,100929.91
2019-04-22T15:16:27.834Z,100938.80
2019-04-22T15:19:13.417Z,100924.51
2019-04-22T15:21:47.173Z,100925.13
2019-04-22T15:24:25.147Z,100920.97
2019-04-22T15:26:58.522Z,100917.30
2019-04-22T15:29:29.591Z,100928.51
2019-04-22T15:32:00.104Z,100916.19
2019-04-22T15:34:30.758Z,100908.00
2019-04-22T15:37:02.337Z,100908.79
2019-04-22T15:39:33.983Z,100899.28
2019-04-22T15:42:20.786Z,100900.12
2019-04-22T15:44:46.122Z,100898.97
2019-04-22T15:47:16.523Z,100898.53
2019-04-22T15:49:47.835Z,100896.39
2019-04-22T15:52:18.936Z,100891.72
2019-04-22T15:54:51.805Z,100889.75
2019-04-22T15:57:22.526Z,100891.73
2019-04-22T16:00:06.791Z,100891.67
2019-04-22T16:02:25.713Z,100889.80
2019-04-22T16:04:56.890Z,100883.17
2019-04-22T16:07:27.726Z,100882.83
2019-04-22T16:09:59.582Z,100880.23
2019-04-22T16:12:37.726Z,100865.93
2019-04-22T16:15:03.661Z,100889.39
2019-04-22T16:17:34.777Z,100874.27
2019-04-22T16:20:07.004Z,100875.80
2019-04-22T16:22:55.089Z,100875.17
2019-04-22T16:25:49.555Z,100865.48
2019-04-22T16:28:21.504Z,100868.17
2019-04-22T16:30:53.265Z,100869.59
2019-04-22T16:33:23.716Z,100875.90
2019-04-22T16:35:55.074Z,100858.75
2019-04-22T16:38:26.768Z,100868.02
2019-04-22T16:40:58.738Z,100864.30
2019-04-22T16:43:29.136Z,100869.76
2019-04-22T16:45:59.398Z,100870.00
2019-04-22T16:48:29.866Z,100866.25
2019-04-22T16:51:00.363Z,100865.27
2019-04-22T16:53:31.489Z,100852.06
2019-04-22T16:56:02.688Z,100862.73
2019-04-22T16:58:34.612Z,100857.70
2019-04-22T17:01:07.325Z,100861.07
2019-04-22T17:03:56.504Z,100850.39
2019-04-22T17:06:35.201Z,100851.76
2019-04-22T17:09:09.178Z,100860.07
2019-04-22T17:11:40.208Z,100852.77
2019-04-22T17:14:11.292Z,100847.34
2019-04-22T17:16:42.096Z,100849.77
2019-04-22T17:19:13.146Z,100840.66
2019-04-22T17:21:43.816Z,100846.48
2019-04-22T17:24:14.095Z,100847.37
2019-04-22T17:26:44.351Z,100843.92
2019-04-22T17:29:14.784Z,100846.87
2019-04-22T17:31:50.964Z,100845.53
2019-04-22T17:34:17.835Z,100851.06
2019-04-22T17:36:49.162Z,100845.92
2019-04-22T17:39:31.485Z,100841.18
2019-04-22T17:42:11.192Z,100838.60
2019-04-22T17:44:48.647Z,100848.77
2019-04-22T17:47:25.898Z,100846.23
2019-04-22T17:50:10.620Z,100845.17
2019-04-22T17:52:36.576Z,100837.44
2019-04-22T17:55:04.571Z,100843.31
2019-04-22T17:57:39.350Z,100834.08
2019-04-22T18:00:13.123Z,100840.05
2019-04-22T18:02:43.474Z,100843.95
2019-04-22T18:05:03.744Z,100847.37
2019-04-22T18:07:52.590Z,100842.05
2019-04-22T18:10:32.895Z,100836.31
2019-04-22T18:13:00.069Z,100849.56
2019-04-22T18:15:29.677Z,100839.19
2019-04-22T18:18:05.308Z,100849.22
2019-04-22T18:20:29.274Z,100846.59
2019-04-22T18:22:54.774Z,100848.22
2019-04-22T18:25:34.062Z,100841.86
2019-04-22T18:30:37.403Z,100836.78
2019-04-22T18:33:20.695Z,100848.49
2019-04-22T18:35:51.564Z,100837.95
2019-04-22T18:38:33.255Z,100854.55
2019-04-22T18:40:55.980Z,100854.02
2019-04-22T18:43:34.773Z,100853.25
2019-04-22T18:46:05.363Z,100863.36
2019-04-22T18:48:36.098Z,100854.25
2019-04-22T18:51:24.629Z,100857.12
2019-04-22T18:54:00.144Z,100853.87
2019-04-22T18:56:47.762Z,100850.25
2019-04-22T18:59:10.485Z,100850.63
2019-04-22T19:01:33.614Z,100852.72
2019-04-22T19:04:12.799Z,100855.14
2019-04-22T19:07:01.795Z,100852.48
2019-04-22T19:09:43.361Z,100852.86
2019-04-22T19:12:29.227Z,100856.48
2019-04-22T19:14:45.440Z,100869.88
2019-04-22T19:17:30.018Z,100873.70
2019-04-22T19:19:51.010Z,100872.81
2019-04-22T19:22:19.516Z,100875.42
2019-04-22T19:24:47.353Z,100888.64
2019-04-22T19:27:26.909Z,100884.17
2019-04-22T19:30:23.985Z,100877.50
2019-04-22T19:33:00.365Z,100894.56
2019-04-22T19:35:26.934Z,100892.77
2019-04-22T19:37:58.852Z,100899.27
2019-04-22T19:40:50.544Z,100898.69
2019-04-22T19:43:18.702Z,100896.27
2019-04-22T19:45:43.004Z,100906.33
2019-04-22T19:48:27.178Z,100911.91
2019-04-22T19:50:58.517Z,100904.23
2019-04-22T19:53:33.632Z,100911.61
2019-04-22T19:55:55.609Z,100909.23
2019-04-22T19:58:31.102Z,100912.55
2019-04-22T20:01:38.639Z,100916.73
2019-04-22T20:04:26.211Z,100908.09
2019-04-22T20:06:52.288Z,100915.34
2019-04-22T20:09:29.922Z,100910.02
2019-04-22T20:11:59.686Z,100916.50
2019-04-22T20:17:07.597Z,100909.48
2019-04-22T20:19:48.048Z,100914.95
2019-04-22T20:22:17.591Z,100912.77
2019-04-22T20:24:44.880Z,100914.87
2019-04-22T20:27:28.592Z,100915.15
2019-04-22T20:29:58.162Z,100911.02
2019-04-22T20:32:26.286Z,100915.69
2019-04-22T20:35:06.023Z,100915.11
2019-04-22T20:39:33.545Z,100910.27
2019-04-22T20:42:16.496Z,100902.34
2019-04-22T20:44:41.030Z,100905.94
2019-04-22T20:47:09.311Z,100905.08
2019-04-22T20:49:47.497Z,100908.13
2019-04-22T20:52:29.227Z,100900.27
2019-04-22T20:54:49.458Z,100903.38
2019-04-22T20:57:26.280Z,100910.48
2019-04-22T20:59:57.601Z,100906.62
2019-04-22T21:02:25.239Z,100908.00
2019-04-22T21:04:53.989Z,100897.95
2019-04-22T21:07:31.386Z,100899.36
2019-04-22T21:10:07.641Z,100892.88
2019-04-22T21:12:30.299Z,100903.97
2019-04-22T21:15:13.591Z,100898.76
2019-04-22T21:17:44.682Z,100895.76
2019-04-22T21:20:24.210Z,100900.80
2019-04-22T21:22:58.225Z,100905.31
2019-04-22T21:25:20.615Z,100897.02
2019-04-22T21:27:58.262Z,100901.91
2019-04-22T21:30:31.925Z,100901.99
2019-04-22T21:32:59.463Z,100905.59
2019-04-22T21:35:58.070Z,100905.70
2019-04-22T21:38:14.577Z,100911.08
2019-04-22T21:40:46.127Z,100905.05
2019-04-22T21:43:18.493Z,100904.23
2019-04-22T21:45:53.055Z,100899.56
2019-04-22T21:50:59.550Z,100906.75
2019-04-22T21:53:37.083Z,100908.16
2019-04-22T21:56:11.832Z,100904.67
2019-04-22T21:58:38.155Z,100907.41
2019-04-22T22:01:29.130Z,100904.38
2019-04-22T22:03:55.723Z,100898.74
2019-04-22T22:06:15.148Z,100902.86
2019-04-22T22:08:59.779Z,100912.15
2019-04-22T22:11:27.776Z,100909.12
2019-04-22T22:14:06.613Z,100907.00
2019-04-22T22:16:27.390Z,100907.52
2019-04-22T22:19:06.741Z,100903.68
2019-04-22T22:21:47.958Z,100908.15
2019-04-22T22:24:13.104Z,100904.31
2019-04-22T22:26:44.841Z,100912.30
2019-04-22T22:29:29.374Z,100917.68
2019-04-22T22:31:55.562Z,100911.61
2019-04-22T22:34:25.023Z,100906.02
2019-04-22T22:36:50.778Z,100907.42
2019-04-22T22:39:21.818Z,100904.38
2019-04-22T22:41:41.804Z,100897.32
2019-04-22T22:44:20.921Z,100892.45
2019-04-22T22:47:03.413Z,100892.50
2019-04-22T22:49:45.191Z,100890.33
2019-04-22T22:52:41.345Z,100891.19
2019-04-22T22:54:44.468Z,100889.03
2019-04-22T22:59:44.160Z,100876.90
2019-04-22T23:02:15.668Z,100883.59
2019-04-22T23:04:51.193Z,100874.89
2019-04-22T23:09:58.603Z,100877.27
2019-04-22T23:12:34.590Z,100882.16
2019-04-22T23:15:03.273Z,100875.23
2019-04-22T23:17:16.219Z,100874.84
2019-04-22T23:19:46.607Z,100870.05
2019-04-22T23:22:25.282Z,100865.28
2019-04-22T23:25:14.402Z,100874.99
2019-04-22T23:27:42.083Z,100874.19
2019-04-22T23:30:25.233Z,100858.84
2019-04-22T23:33:03.566Z,100865.48
2019-04-22T23:35:53.240Z,100856.78
2019-04-22T23:38:37.575Z,100848.45
2019-04-22T23:41:05.422Z,100855.56
2019-04-22T23:43:38.932Z,100855.61
2019-04-22T23:46:06.966Z,100846.00
2019-04-22T23:48:35.252Z,100842.97
2019-04-22T23:51:13.800Z,100832.94
2019-04-22T23:53:59.820Z,100829.52
2019-04-22T23:56:17.473Z,100839.20
2019-04-22T23:58:52.417Z,100826.54
